sensor_id;sensor_type;location;lat;lon;timestamp;temperature;humidity
40848;DHT22;26570;50.962;5.340;2023-03-02T01:02:54;0.70;99.90
40848;DHT22;26570;50.962;5.340;2023-03-02T01:05:40;0.70;99.90
40848;DHT22;26570;50.962;5.340;2023-03-02T01:08:26;0.70;99.90
40848;DHT22;26570;50.962;5.340;2023-03-02T01:11:16;0.70;99.90
40848;DHT22;26570;50.962;5.340;2023-03-02T01:14:25;0.70;99.90
40848;DHT22;26570;50.962;5.340;2023-03-02T01:17:10;0.60;99.90
40848;DHT22;26570;50.962;5.340;2023-03-02T01:19:59;0.80;99.90
40848;DHT22;26570;50.962;5.340;2023-03-02T01:22:44;0.80;99.90
40848;DHT22;26570;50.962;5.340;2023-03-02T01:25:29;0.70;99.90
40848;DHT22;26570;50.962;5.340;2023-03-02T01:28:15;0.70;99.90
40848;DHT22;26570;50.962;5.340;2023-03-02T01:31:00;0.60;99.90
40848;DHT22;26570;50.962;5.340;2023-03-02T01:33:49;0.70;99.90
40848;DHT22;26570;50.962;5.340;2023-03-02T01:36:35;0.50;99.90
40848;DHT22;26570;50.962;5.340;2023-03-02T01:39:20;0.50;99.90
40848;DHT22;26570;50.962;5.340;2023-03-02T01:42:08;0.60;99.90
40848;DHT22;26570;50.962;5.340;2023-03-02T01:44:53;0.50;99.90
40848;DHT22;26570;50.962;5.340;2023-03-02T01:47:41;0.40;99.90
40848;DHT22;26570;50.962;5.340;2023-03-02T01:50:49;0.40;99.90
40848;DHT22;26570;50.962;5.340;2023-03-02T01:54:05;0.50;99.90
40848;DHT22;26570;50.962;5.340;2023-03-02T01:56:55;0.60;99.90
40848;DHT22;26570;50.962;5.340;2023-03-02T01:59:40;0.50;99.90
40848;DHT22;26570;50.962;5.340;2023-03-02T02:02:26;0.40;99.90
40848;DHT22;26570;50.962;5.340;2023-03-02T02:05:38;0.40;99.90
40848;DHT22;26570;50.962;5.340;2023-03-02T02:08:27;0.30;99.90
40848;DHT22;26570;50.962;5.340;2023-03-02T02:11:12;0.30;99.90
40848;DHT22;26570;50.962;5.340;2023-03-02T02:13:59;0.40;99.90
40848;DHT22;26570;50.962;5.340;2023-03-02T02:16:47;0.30;99.90
40848;DHT22;26570;50.962;5.340;2023-03-02T02:19:54;0.30;99.90
40848;DHT22;26570;50.962;5.340;2023-03-02T02:28:56;0.30;99.90
40848;DHT22;26570;50.962;5.340;2023-03-02T02:32:02;0.30;99.90
40848;DHT22;26570;50.962;5.340;2023-03-02T02:35:23;0.30;99.90
40848;DHT22;26570;50.962;5.340;2023-03-02T02:38:14;0.30;99.90
40848;DHT22;26570;50.962;5.340;2023-03-02T02:41:05;0.10;99.90
40848;DHT22;26570;50.962;5.340;2023-03-02T02:43:51;0.10;99.90
40848;DHT22;26570;50.962;5.340;2023-03-02T02:46:59;0.20;99.90
40848;DHT22;26570;50.962;5.340;2023-03-02T02:50:20;0.20;99.90
40848;DHT22;26570;50.962;5.340;2023-03-02T02:53:13;0.20;99.90
40848;DHT22;26570;50.962;5.340;2023-03-02T02:56:00;0.20;99.90
40848;DHT22;26570;50.962;5.340;2023-03-02T02:58:49;0.20;99.90
40848;DHT22;26570;50.962;5.340;2023-03-02T03:01:35;0.10;99.90
40848;DHT22;26570;50.962;5.340;2023-03-02T03:04:25;0.10;99.90
40848;DHT22;26570;50.962;5.340;2023-03-02T03:07:21;0.20;99.90
40848;DHT22;26570;50.962;5.340;2023-03-02T03:13:10;0.10;99.90
40848;DHT22;26570;50.962;5.340;2023-03-02T03:16:18;0.00;99.90
40848;DHT22;26570;50.962;5.340;2023-03-02T03:19:30;0.00;99.90
40848;DHT22;26570;50.962;5.340;2023-03-02T03:22:15;0.00;99.90
40848;DHT22;26570;50.962;5.340;2023-03-02T03:25:00;0.10;99.90
40848;DHT22;26570;50.962;5.340;2023-03-02T03:27:46;0.10;99.90
40848;DHT22;26570;50.962;5.340;2023-03-02T03:30:32;0.10;99.90
40848;DHT22;26570;50.962;5.340;2023-03-02T03:33:17;0.10;99.90
40848;DHT22;26570;50.962;5.340;2023-03-02T03:36:03;0.00;99.90
40848;DHT22;26570;50.962;5.340;2023-03-02T03:38:48;-0.10;99.90
40848;DHT22;26570;50.962;5.340;2023-03-02T03:41:55;-0.10;99.90
40848;DHT22;26570;50.962;5.340;2023-03-02T03:44:41;-0.10;99.90
40848;DHT22;26570;50.962;5.340;2023-03-02T03:47:26;-0.20;99.90
40848;DHT22;26570;50.962;5.340;2023-03-02T03:50:11;-0.20;99.90
40848;DHT22;26570;50.962;5.340;2023-03-02T03:53:19;-0.10;99.90
40848;DHT22;26570;50.962;5.340;2023-03-02T03:56:27;-0.10;99.90
40848;DHT22;26570;50.962;5.340;2023-03-02T03:59:17;-0.10;99.90
40848;DHT22;26570;50.962;5.340;2023-03-02T04:02:02;0.00;99.90
40848;DHT22;26570;50.962;5.340;2023-03-02T04:04:48;0.00;99.90
40848;DHT22;26570;50.962;5.340;2023-03-02T04:07:35;0.10;99.90
40848;DHT22;26570;50.962;5.340;2023-03-02T04:10:43;0.00;99.90
40848;DHT22;26570;50.962;5.340;2023-03-02T04:13:29;0.10;99.90
40848;DHT22;26570;50.962;5.340;2023-03-02T04:16:37;-0.20;99.90
40848;DHT22;26570;50.962;5.340;2023-03-02T04:19:23;-0.10;99.90
40848;DHT22;26570;50.962;5.340;2023-03-02T04:22:08;-0.10;99.90
40848;DHT22;26570;50.962;5.340;2023-03-02T04:24:56;-0.10;99.90
40848;DHT22;26570;50.962;5.340;2023-03-02T04:28:04;0.00;99.90
40848;DHT22;26570;50.962;5.340;2023-03-02T04:30:49;-1.00;99.90
40848;DHT22;26570;50.962;5.340;2023-03-02T04:33:35;-0.10;99.90
40848;DHT22;26570;50.962;5.340;2023-03-02T04:36:20;0.10;99.90
40848;DHT22;26570;50.962;5.340;2023-03-02T04:39:07;0.00;99.90
40848;DHT22;26570;50.962;5.340;2023-03-02T04:41:53;-0.20;99.90
40848;DHT22;26570;50.962;5.340;2023-03-02T04:44:38;-0.10;99.90
40848;DHT22;26570;50.962;5.340;2023-03-02T04:47:23;-0.10;99.90
40848;DHT22;26570;50.962;5.340;2023-03-02T04:50:11;0.30;99.90
40848;DHT22;26570;50.962;5.340;2023-03-02T04:52:57;0.20;99.90
40848;DHT22;26570;50.962;5.340;2023-03-02T04:55:42;0.10;99.90
40848;DHT22;26570;50.962;5.340;2023-03-02T04:58:28;0.30;99.90
40848;DHT22;26570;50.962;5.340;2023-03-02T05:01:15;0.10;99.90
40848;DHT22;26570;50.962;5.340;2023-03-02T05:04:24;0.00;99.90
40848;DHT22;26570;50.962;5.340;2023-03-02T05:07:32;0.10;99.90
40848;DHT22;26570;50.962;5.340;2023-03-02T05:10:18;0.10;99.90
40848;DHT22;26570;50.962;5.340;2023-03-02T05:13:04;0.20;99.90
40848;DHT22;26570;50.962;5.340;2023-03-02T05:15:49;0.00;99.90
40848;DHT22;26570;50.962;5.340;2023-03-02T05:18:35;-0.10;99.90
40848;DHT22;26570;50.962;5.340;2023-03-02T05:21:21;-0.10;99.90
40848;DHT22;26570;50.962;5.340;2023-03-02T05:24:07;-0.10;99.90
40848;DHT22;26570;50.962;5.340;2023-03-02T05:26:52;-0.10;99.90
40848;DHT22;26570;50.962;5.340;2023-03-02T05:29:59;-0.20;99.90
40848;DHT22;26570;50.962;5.340;2023-03-02T05:32:45;-0.10;99.90
40848;DHT22;26570;50.962;5.340;2023-03-02T05:35:53;-0.10;99.90
40848;DHT22;26570;50.962;5.340;2023-03-02T05:38:38;-0.20;99.90
40848;DHT22;26570;50.962;5.340;2023-03-02T05:41:24;-0.10;99.90
40848;DHT22;26570;50.962;5.340;2023-03-02T05:44:31;-0.30;99.90
40848;DHT22;26570;50.962;5.340;2023-03-02T05:47:17;-0.20;99.90
40848;DHT22;26570;50.962;5.340;2023-03-02T05:50:02;-0.20;99.90
40848;DHT22;26570;50.962;5.340;2023-03-02T05:52:48;-0.20;99.90
40848;DHT22;26570;50.962;5.340;2023-03-02T05:55:33;-0.30;99.90
40848;DHT22;26570;50.962;5.340;2023-03-02T05:58:21;-0.30;99.90
40848;DHT22;26570;50.962;5.340;2023-03-02T06:01:08;-0.20;99.90
40848;DHT22;26570;50.962;5.340;2023-03-02T06:03:55;-0.30;99.90
40848;DHT22;26570;50.962;5.340;2023-03-02T06:06:40;-0.30;99.90
40848;DHT22;26570;50.962;5.340;2023-03-02T06:09:25;-0.40;99.90
40848;DHT22;26570;50.962;5.340;2023-03-02T06:12:11;-1.20;99.90
40848;DHT22;26570;50.962;5.340;2023-03-02T06:14:56;-0.30;99.90
40848;DHT22;26570;50.962;5.340;2023-03-02T06:17:43;-0.50;99.90
40848;DHT22;26570;50.962;5.340;2023-03-02T06:20:28;-0.50;99.90
40848;DHT22;26570;50.962;5.340;2023-03-02T06:23:36;-0.50;99.90
40848;DHT22;26570;50.962;5.340;2023-03-02T06:26:21;-0.40;99.90
40848;DHT22;26570;50.962;5.340;2023-03-02T06:29:06;-0.50;99.90
40848;DHT22;26570;50.962;5.340;2023-03-02T06:31:52;-0.40;99.90
40848;DHT22;26570;50.962;5.340;2023-03-02T06:34:37;-0.30;99.90
40848;DHT22;26570;50.962;5.340;2023-03-02T06:37:22;-0.30;99.90
40848;DHT22;26570;50.962;5.340;2023-03-02T06:40:08;-0.30;99.90
40848;DHT22;26570;50.962;5.340;2023-03-02T06:42:57;-0.30;99.90
40848;DHT22;26570;50.962;5.340;2023-03-02T06:46:06;-0.20;99.90
40848;DHT22;26570;50.962;5.340;2023-03-02T06:48:52;-0.10;99.90
40848;DHT22;26570;50.962;5.340;2023-03-02T06:51:40;-0.10;99.90
40848;DHT22;26570;50.962;5.340;2023-03-02T06:54:25;0.00;99.90
40848;DHT22;26570;50.962;5.340;2023-03-02T06:57:11;0.00;99.90
40848;DHT22;26570;50.962;5.340;2023-03-02T06:59:57;0.00;99.90
40848;DHT22;26570;50.962;5.340;2023-03-02T07:02:49;0.10;99.90
40848;DHT22;26570;50.962;5.340;2023-03-02T07:05:34;0.20;99.90
40848;DHT22;26570;50.962;5.340;2023-03-02T07:08:20;0.20;99.90
40848;DHT22;26570;50.962;5.340;2023-03-02T07:11:10;0.40;99.90
40848;DHT22;26570;50.962;5.340;2023-03-02T07:13:58;0.60;99.90
40848;DHT22;26570;50.962;5.340;2023-03-02T07:16:43;1.30;99.90
40848;DHT22;26570;50.962;5.340;2023-03-02T07:19:28;2.10;99.90
40848;DHT22;26570;50.962;5.340;2023-03-02T07:22:13;2.60;99.90
40848;DHT22;26570;50.962;5.340;2023-03-02T07:24:58;2.70;99.90
40848;DHT22;26570;50.962;5.340;2023-03-02T07:27:43;2.70;99.90
40848;DHT22;26570;50.962;5.340;2023-03-02T07:30:29;3.00;99.90
40848;DHT22;26570;50.962;5.340;2023-03-02T07:33:14;4.20;99.90
40848;DHT22;26570;50.962;5.340;2023-03-02T07:36:27;4.00;99.90
40848;DHT22;26570;50.962;5.340;2023-03-02T07:39:12;4.10;99.90
40848;DHT22;26570;50.962;5.340;2023-03-02T07:42:35;4.40;99.90
40848;DHT22;26570;50.962;5.340;2023-03-02T07:45:20;5.40;99.90
40848;DHT22;26570;50.962;5.340;2023-03-02T07:48:32;6.40;99.90
40848;DHT22;26570;50.962;5.340;2023-03-02T07:51:39;7.20;99.90
40848;DHT22;26570;50.962;5.340;2023-03-02T07:54:24;7.40;99.90
40848;DHT22;26570;50.962;5.340;2023-03-02T07:57:11;7.70;99.90
40848;DHT22;26570;50.962;5.340;2023-03-02T08:00:15;7.50;99.80
40848;DHT22;26570;50.962;5.340;2023-03-02T08:03:23;7.40;99.90
40848;DHT22;26570;50.962;5.340;2023-03-02T08:06:10;6.80;99.90
40848;DHT22;26570;50.962;5.340;2023-03-02T08:09:15;6.90;99.90
40848;DHT22;26570;50.962;5.340;2023-03-02T08:12:20;7.40;99.90
40848;DHT22;26570;50.962;5.340;2023-03-02T08:15:05;7.90;99.30
40848;DHT22;26570;50.962;5.340;2023-03-02T08:17:53;8.50;97.70
40848;DHT22;26570;50.962;5.340;2023-03-02T08:20:38;9.00;96.90
40848;DHT22;26570;50.962;5.340;2023-03-02T08:23:45;9.90;95.60
40848;DHT22;26570;50.962;5.340;2023-03-02T08:26:31;10.10;94.90
40848;DHT22;26570;50.962;5.340;2023-03-02T08:29:16;10.50;94.30
40848;DHT22;26570;50.962;5.340;2023-03-02T08:32:02;10.40;93.20
40848;DHT22;26570;50.962;5.340;2023-03-02T08:34:50;10.60;93.20
40848;DHT22;26570;50.962;5.340;2023-03-02T08:38:00;10.40;93.10
40848;DHT22;26570;50.962;5.340;2023-03-02T08:40:45;9.80;93.80
40848;DHT22;26570;50.962;5.340;2023-03-02T08:43:31;9.60;93.90
40848;DHT22;26570;50.962;5.340;2023-03-02T08:46:18;9.00;95.20
40848;DHT22;26570;50.962;5.340;2023-03-02T08:49:26;9.30;95.10
40848;DHT22;26570;50.962;5.340;2023-03-02T08:52:34;9.70;94.50
40848;DHT22;26570;50.962;5.340;2023-03-02T08:55:20;9.50;94.60
40848;DHT22;26570;50.962;5.340;2023-03-02T08:58:05;9.50;94.50
40848;DHT22;26570;50.962;5.340;2023-03-02T09:00:50;9.50;94.60
40848;DHT22;26570;50.962;5.340;2023-03-02T09:03:38;9.50;93.90
40848;DHT22;26570;50.962;5.340;2023-03-02T09:06:45;9.50;94.30
40848;DHT22;26570;50.962;5.340;2023-03-02T09:09:30;9.10;94.70
40848;DHT22;26570;50.962;5.340;2023-03-02T09:12:15;9.20;95.00
40848;DHT22;26570;50.962;5.340;2023-03-02T09:15:00;9.00;94.80
40848;DHT22;26570;50.962;5.340;2023-03-02T09:17:45;9.00;95.40
40848;DHT22;26570;50.962;5.340;2023-03-02T09:20:32;9.20;95.10
40848;DHT22;26570;50.962;5.340;2023-03-02T09:23:18;9.20;94.60
40848;DHT22;26570;50.962;5.340;2023-03-02T09:26:04;9.00;94.70
40848;DHT22;26570;50.962;5.340;2023-03-02T09:28:50;9.30;94.70
40848;DHT22;26570;50.962;5.340;2023-03-02T09:31:36;9.80;94.50
40848;DHT22;26570;50.962;5.340;2023-03-02T09:34:21;9.90;93.60
40848;DHT22;26570;50.962;5.340;2023-03-02T09:37:09;9.90;94.10
40848;DHT22;26570;50.962;5.340;2023-03-02T09:39:54;10.00;93.40
40848;DHT22;26570;50.962;5.340;2023-03-02T09:46:06;10.00;93.30
40848;DHT22;26570;50.962;5.340;2023-03-02T09:53:08;10.00;93.00
40848;DHT22;26570;50.962;5.340;2023-03-02T09:55:57;9.50;93.70
40848;DHT22;26570;50.962;5.340;2023-03-02T09:59:53;9.60;94.20
40848;DHT22;26570;50.962;5.340;2023-03-02T10:05:19;9.90;93.10
40848;DHT22;26570;50.962;5.340;2023-03-02T10:08:17;10.00;93.70
40848;DHT22;26570;50.962;5.340;2023-03-02T10:11:25;9.40;93.70
40848;DHT22;26570;50.962;5.340;2023-03-02T10:17:47;9.60;93.80
40848;DHT22;26570;50.962;5.340;2023-03-02T10:21:02;9.70;94.30
40848;DHT22;26570;50.962;5.340;2023-03-02T10:23:58;9.70;93.30
40848;DHT22;26570;50.962;5.340;2023-03-02T10:26:54;9.60;94.00
40848;DHT22;26570;50.962;5.340;2023-03-02T10:30:05;9.50;94.00
40848;DHT22;26570;50.962;5.340;2023-03-02T10:32:52;9.50;94.70
40848;DHT22;26570;50.962;5.340;2023-03-02T10:35:47;9.50;94.70
40848;DHT22;26570;50.962;5.340;2023-03-02T10:38:35;9.50;95.00
40848;DHT22;26570;50.962;5.340;2023-03-02T10:44:51;9.40;94.00
40848;DHT22;26570;50.962;5.340;2023-03-02T10:47:37;9.80;93.80
40848;DHT22;26570;50.962;5.340;2023-03-02T10:50:22;9.60;94.40
40848;DHT22;26570;50.962;5.340;2023-03-02T10:53:17;9.60;95.00
40848;DHT22;26570;50.962;5.340;2023-03-02T10:56:04;9.60;95.10
40848;DHT22;26570;50.962;5.340;2023-03-02T10:58:49;9.60;95.20
40848;DHT22;26570;50.962;5.340;2023-03-02T11:01:34;9.60;94.70
40848;DHT22;26570;50.962;5.340;2023-03-02T11:04:19;9.60;95.10
40848;DHT22;26570;50.962;5.340;2023-03-02T11:07:18;9.80;94.20
40848;DHT22;26570;50.962;5.340;2023-03-02T11:10:18;9.60;94.70
40848;DHT22;26570;50.962;5.340;2023-03-02T11:19:33;9.60;95.40
40848;DHT22;26570;50.962;5.340;2023-03-02T11:22:43;9.90;95.40
40848;DHT22;26570;50.962;5.340;2023-03-02T11:25:42;10.10;95.00
40848;DHT22;26570;50.962;5.340;2023-03-02T11:28:37;10.00;94.20
40848;DHT22;26570;50.962;5.340;2023-03-02T11:31:42;10.00;94.00
40848;DHT22;26570;50.962;5.340;2023-03-02T11:34:35;10.20;94.40
40848;DHT22;26570;50.962;5.340;2023-03-02T11:37:45;10.40;93.10
40848;DHT22;26570;50.962;5.340;2023-03-02T11:40:52;10.50;94.20
40848;DHT22;26570;50.962;5.340;2023-03-02T11:43:38;10.50;93.60
40848;DHT22;26570;50.962;5.340;2023-03-02T11:46:27;10.40;93.30
40848;DHT22;26570;50.962;5.340;2023-03-02T11:49:30;10.50;93.70
40848;DHT22;26570;50.962;5.340;2023-03-02T11:52:47;10.40;93.10
40848;DHT22;26570;50.962;5.340;2023-03-02T11:55:39;10.50;93.80
40848;DHT22;26570;50.962;5.340;2023-03-02T11:58:30;10.70;92.90
40848;DHT22;26570;50.962;5.340;2023-03-02T12:01:22;10.60;93.50
40848;DHT22;26570;50.962;5.340;2023-03-02T12:04:27;10.80;94.20
40848;DHT22;26570;50.962;5.340;2023-03-02T12:07:24;11.20;93.60
40848;DHT22;26570;50.962;5.340;2023-03-02T12:10:42;11.30;93.00
40848;DHT22;26570;50.962;5.340;2023-03-02T12:13:32;11.30;91.90
40848;DHT22;26570;50.962;5.340;2023-03-02T12:16:43;11.10;92.70
40848;DHT22;26570;50.962;5.340;2023-03-02T12:19:39;11.30;92.90
40848;DHT22;26570;50.962;5.340;2023-03-02T12:22:30;11.50;92.50
40848;DHT22;26570;50.962;5.340;2023-03-02T12:28:03;11.60;92.40
40848;DHT22;26570;50.962;5.340;2023-03-02T12:30:56;11.70;92.90
40848;DHT22;26570;50.962;5.340;2023-03-02T12:33:51;12.00;92.50
40848;DHT22;26570;50.962;5.340;2023-03-02T12:37:17;11.80;91.80
40848;DHT22;26570;50.962;5.340;2023-03-02T12:43:19;11.90;91.90
40848;DHT22;26570;50.962;5.340;2023-03-02T12:46:43;12.00;91.90
40848;DHT22;26570;50.962;5.340;2023-03-02T12:49:53;11.90;91.60
40848;DHT22;26570;50.962;5.340;2023-03-02T12:52:39;12.20;91.70
40848;DHT22;26570;50.962;5.340;2023-03-02T12:55:49;12.30;91.40
40848;DHT22;26570;50.962;5.340;2023-03-02T12:58:33;12.50;92.20
40848;DHT22;26570;50.962;5.340;2023-03-02T13:01:25;12.40;91.10
40848;DHT22;26570;50.962;5.340;2023-03-02T13:04:33;12.50;91.40
40848;DHT22;26570;50.962;5.340;2023-03-02T13:08:04;12.60;91.10
40848;DHT22;26570;50.962;5.340;2023-03-02T13:13:41;12.30;91.90
40848;DHT22;26570;50.962;5.340;2023-03-02T13:16:32;12.40;91.20
40848;DHT22;26570;50.962;5.340;2023-03-02T13:19:20;12.10;91.60
40848;DHT22;26570;50.962;5.340;2023-03-02T13:22:28;12.30;91.10
40848;DHT22;26570;50.962;5.340;2023-03-02T13:25:35;12.20;92.00
40848;DHT22;26570;50.962;5.340;2023-03-02T13:28:28;12.20;92.80
40848;DHT22;26570;50.962;5.340;2023-03-02T13:31:20;12.50;91.60
40848;DHT22;26570;50.962;5.340;2023-03-02T13:34:27;12.50;91.50
40848;DHT22;26570;50.962;5.340;2023-03-02T13:37:22;12.80;91.60
40848;DHT22;26570;50.962;5.340;2023-03-02T13:40:38;13.00;90.30
40848;DHT22;26570;50.962;5.340;2023-03-02T13:43:46;12.80;90.80
40848;DHT22;26570;50.962;5.340;2023-03-02T13:46:35;12.50;91.20
40848;DHT22;26570;50.962;5.340;2023-03-02T13:49:32;12.90;90.80
40848;DHT22;26570;50.962;5.340;2023-03-02T13:52:29;13.00;90.50
40848;DHT22;26570;50.962;5.340;2023-03-02T13:55:38;12.90;90.10
40848;DHT22;26570;50.962;5.340;2023-03-02T13:58:25;13.00;90.30
40848;DHT22;26570;50.962;5.340;2023-03-02T14:01:35;13.00;90.80
40848;DHT22;26570;50.962;5.340;2023-03-02T14:04:22;13.00;89.80
40848;DHT22;26570;50.962;5.340;2023-03-02T14:07:29;12.90;90.10
40848;DHT22;26570;50.962;5.340;2023-03-02T14:10:16;12.70;90.90
40848;DHT22;26570;50.962;5.340;2023-03-02T14:13:34;12.70;90.90
40848;DHT22;26570;50.962;5.340;2023-03-02T14:16:23;12.80;90.40
40848;DHT22;26570;50.962;5.340;2023-03-02T14:19:11;12.80;90.80
40848;DHT22;26570;50.962;5.340;2023-03-02T14:22:01;12.90;90.60
40848;DHT22;26570;50.962;5.340;2023-03-02T14:24:47;12.70;90.50
40848;DHT22;26570;50.962;5.340;2023-03-02T14:27:32;12.80;90.60
40848;DHT22;26570;50.962;5.340;2023-03-02T14:30:19;12.60;91.20
40848;DHT22;26570;50.962;5.340;2023-03-02T14:33:06;12.60;90.30
40848;DHT22;26570;50.962;5.340;2023-03-02T14:35:54;12.60;90.80
40848;DHT22;26570;50.962;5.340;2023-03-02T14:38:40;12.50;91.20
40848;DHT22;26570;50.962;5.340;2023-03-02T14:41:27;12.80;90.80
40848;DHT22;26570;50.962;5.340;2023-03-02T14:44:13;12.80;90.50
40848;DHT22;26570;50.962;5.340;2023-03-02T14:46:58;12.80;90.50
40848;DHT22;26570;50.962;5.340;2023-03-02T14:50:06;12.90;90.90
40848;DHT22;26570;50.962;5.340;2023-03-02T14:52:54;13.00;91.00
40848;DHT22;26570;50.962;5.340;2023-03-02T14:55:41;13.30;91.00
40848;DHT22;26570;50.962;5.340;2023-03-02T14:58:32;13.30;91.00
40848;DHT22;26570;50.962;5.340;2023-03-02T15:01:18;13.20;89.30
40848;DHT22;26570;50.962;5.340;2023-03-02T15:04:04;12.90;90.30
40848;DHT22;26570;50.962;5.340;2023-03-02T15:06:50;12.80;90.50
40848;DHT22;26570;50.962;5.340;2023-03-02T15:09:57;12.50;90.70
40848;DHT22;26570;50.962;5.340;2023-03-02T15:12:43;12.30;91.10
40848;DHT22;26570;50.962;5.340;2023-03-02T15:15:29;12.30;91.70
40848;DHT22;26570;50.962;5.340;2023-03-02T15:18:37;12.50;91.80
40848;DHT22;26570;50.962;5.340;2023-03-02T15:21:23;12.70;91.40
40848;DHT22;26570;50.962;5.340;2023-03-02T15:24:09;12.60;91.90
40848;DHT22;26570;50.962;5.340;2023-03-02T15:26:54;12.30;92.00
40848;DHT22;26570;50.962;5.340;2023-03-02T15:29:43;12.40;92.50
40848;DHT22;26570;50.962;5.340;2023-03-02T15:32:28;12.30;92.00
40848;DHT22;26570;50.962;5.340;2023-03-02T15:35:14;12.10;92.20
40848;DHT22;26570;50.962;5.340;2023-03-02T15:37:59;12.10;93.00
40848;DHT22;26570;50.962;5.340;2023-03-02T15:40:47;12.30;92.80
40848;DHT22;26570;50.962;5.340;2023-03-02T15:43:33;12.40;92.40
40848;DHT22;26570;50.962;5.340;2023-03-02T15:46:20;12.20;92.10
40848;DHT22;26570;50.962;5.340;2023-03-02T15:49:06;12.10;92.60
40848;DHT22;26570;50.962;5.340;2023-03-02T15:52:16;12.10;92.50
40848;DHT22;26570;50.962;5.340;2023-03-02T15:55:03;12.30;92.90
40848;DHT22;26570;50.962;5.340;2023-03-02T15:57:49;12.20;92.30
40848;DHT22;26570;50.962;5.340;2023-03-02T16:00:34;12.10;92.80
40848;DHT22;26570;50.962;5.340;2023-03-02T16:03:24;12.00;92.40
40848;DHT22;26570;50.962;5.340;2023-03-02T16:06:10;11.80;92.60
40848;DHT22;26570;50.962;5.340;2023-03-02T16:08:56;11.70;93.00
40848;DHT22;26570;50.962;5.340;2023-03-02T16:11:42;11.90;93.10
40848;DHT22;26570;50.962;5.340;2023-03-02T16:14:27;11.90;92.40
40848;DHT22;26570;50.962;5.340;2023-03-02T16:17:13;11.70;92.40
40848;DHT22;26570;50.962;5.340;2023-03-02T16:19:57;11.80;92.30
40848;DHT22;26570;50.962;5.340;2023-03-02T16:22:43;11.60;92.50
40848;DHT22;26570;50.962;5.340;2023-03-02T16:25:28;11.40;92.30
40848;DHT22;26570;50.962;5.340;2023-03-02T16:28:15;11.40;92.90
40848;DHT22;26570;50.962;5.340;2023-03-02T16:31:10;11.30;91.80
40848;DHT22;26570;50.962;5.340;2023-03-02T16:33:56;11.20;92.80
40848;DHT22;26570;50.962;5.340;2023-03-02T16:37:04;11.20;92.30
40848;DHT22;26570;50.962;5.340;2023-03-02T16:39:50;11.00;92.20
40848;DHT22;26570;50.962;5.340;2023-03-02T16:42:36;10.80;92.70
40848;DHT22;26570;50.962;5.340;2023-03-02T16:45:21;10.70;92.50
40848;DHT22;26570;50.962;5.340;2023-03-02T16:48:08;10.60;92.70
40848;DHT22;26570;50.962;5.340;2023-03-02T16:50:55;10.30;93.00
40848;DHT22;26570;50.962;5.340;2023-03-02T16:53:44;10.20;93.60
40848;DHT22;26570;50.962;5.340;2023-03-02T16:56:29;10.10;93.60
40848;DHT22;26570;50.962;5.340;2023-03-02T16:59:15;10.00;94.10
40848;DHT22;26570;50.962;5.340;2023-03-02T17:02:23;9.90;94.10
40848;DHT22;26570;50.962;5.340;2023-03-02T17:05:09;9.90;94.30
40848;DHT22;26570;50.962;5.340;2023-03-02T17:07:55;9.80;94.60
40848;DHT22;26570;50.962;5.340;2023-03-02T17:10:42;9.80;94.80
40848;DHT22;26570;50.962;5.340;2023-03-02T17:13:50;9.70;94.90
40848;DHT22;26570;50.962;5.340;2023-03-02T17:16:35;9.60;95.30
40848;DHT22;26570;50.962;5.340;2023-03-02T17:19:20;9.50;95.60
40848;DHT22;26570;50.962;5.340;2023-03-02T17:22:05;9.30;96.00
40848;DHT22;26570;50.962;5.340;2023-03-02T17:24:50;9.30;96.20
40848;DHT22;26570;50.962;5.340;2023-03-02T17:27:35;9.10;96.90
40848;DHT22;26570;50.962;5.340;2023-03-02T17:30:21;9.00;97.20
40848;DHT22;26570;50.962;5.340;2023-03-02T17:33:06;8.80;97.60
40848;DHT22;26570;50.962;5.340;2023-03-02T17:35:51;8.60;98.00
40848;DHT22;26570;50.962;5.340;2023-03-02T17:38:38;8.50;98.40
40848;DHT22;26570;50.962;5.340;2023-03-02T17:41:23;8.30;99.10
40848;DHT22;26570;50.962;5.340;2023-03-02T17:44:08;8.30;99.20
40848;DHT22;26570;50.962;5.340;2023-03-02T17:46:54;8.30;99.30
40848;DHT22;26570;50.962;5.340;2023-03-02T17:50:05;8.10;99.80
40848;DHT22;26570;50.962;5.340;2023-03-02T17:52:51;8.10;99.90
40848;DHT22;26570;50.962;5.340;2023-03-02T17:55:40;8.00;99.90
40848;DHT22;26570;50.962;5.340;2023-03-02T17:59:01;8.10;99.90
40848;DHT22;26570;50.962;5.340;2023-03-02T18:01:49;7.90;99.90
40848;DHT22;26570;50.962;5.340;2023-03-02T18:05:10;7.80;99.90
40848;DHT22;26570;50.962;5.340;2023-03-02T18:07:56;7.80;99.90
40848;DHT22;26570;50.962;5.340;2023-03-02T18:10:42;7.70;99.90
40848;DHT22;26570;50.962;5.340;2023-03-02T18:13:35;7.60;99.90
40848;DHT22;26570;50.962;5.340;2023-03-02T18:16:27;7.50;99.90
40848;DHT22;26570;50.962;5.340;2023-03-02T18:19:17;7.50;99.90
40848;DHT22;26570;50.962;5.340;2023-03-02T18:22:05;7.40;99.90
40848;DHT22;26570;50.962;5.340;2023-03-02T18:25:12;7.30;99.90
40848;DHT22;26570;50.962;5.340;2023-03-02T18:27:58;7.20;99.90
40848;DHT22;26570;50.962;5.340;2023-03-02T18:30:43;7.10;99.90
40848;DHT22;26570;50.962;5.340;2023-03-02T18:33:29;7.10;99.90
40848;DHT22;26570;50.962;5.340;2023-03-02T18:36:15;7.10;99.90
40848;DHT22;26570;50.962;5.340;2023-03-02T18:39:22;6.90;99.90
40848;DHT22;26570;50.962;5.340;2023-03-02T18:42:08;6.90;99.90
40848;DHT22;26570;50.962;5.340;2023-03-02T18:44:53;7.00;99.90
40848;DHT22;26570;50.962;5.340;2023-03-02T18:47:38;6.80;99.90
40848;DHT22;26570;50.962;5.340;2023-03-02T18:50:24;6.80;99.90
40848;DHT22;26570;50.962;5.340;2023-03-02T18:53:33;6.70;99.90
40848;DHT22;26570;50.962;5.340;2023-03-02T18:56:19;6.70;99.90
40848;DHT22;26570;50.962;5.340;2023-03-02T18:59:04;6.80;99.90
40848;DHT22;26570;50.962;5.340;2023-03-02T19:01:52;6.70;99.90
40848;DHT22;26570;50.962;5.340;2023-03-02T19:04:37;6.60;99.90
40848;DHT22;26570;50.962;5.340;2023-03-02T19:07:22;6.50;99.90
40848;DHT22;26570;50.962;5.340;2023-03-02T19:10:08;6.60;99.90
40848;DHT22;26570;50.962;5.340;2023-03-02T19:13:21;6.60;99.90
40848;DHT22;26570;50.962;5.340;2023-03-02T19:16:09;6.50;99.90
40848;DHT22;26570;50.962;5.340;2023-03-02T19:18:55;6.50;99.90
40848;DHT22;26570;50.962;5.340;2023-03-02T19:21:41;6.40;99.90
40848;DHT22;26570;50.962;5.340;2023-03-02T19:24:26;6.40;99.90
40848;DHT22;26570;50.962;5.340;2023-03-02T19:27:15;6.30;99.90
40848;DHT22;26570;50.962;5.340;2023-03-02T19:30:04;6.40;99.90
40848;DHT22;26570;50.962;5.340;2023-03-02T19:32:49;6.30;99.90
40848;DHT22;26570;50.962;5.340;2023-03-02T19:35:38;6.30;99.90
40848;DHT22;26570;50.962;5.340;2023-03-02T19:38:23;6.10;99.90
40848;DHT22;26570;50.962;5.340;2023-03-02T19:41:34;6.10;99.90
40848;DHT22;26570;50.962;5.340;2023-03-02T19:44:19;6.10;99.90
40848;DHT22;26570;50.962;5.340;2023-03-02T19:47:04;6.20;99.90
40848;DHT22;26570;50.962;5.340;2023-03-02T19:49:49;6.20;99.90
40848;DHT22;26570;50.962;5.340;2023-03-02T19:52:34;6.20;99.90
40848;DHT22;26570;50.962;5.340;2023-03-02T19:55:21;6.10;99.90
40848;DHT22;26570;50.962;5.340;2023-03-02T19:58:10;5.90;99.90
40848;DHT22;26570;50.962;5.340;2023-03-02T20:01:03;6.00;99.90